Rafael Lima

Chefscout - Grêmio
3 Apr 2027
Samstag
Verarbeitung

Persönlichkeit

Anpassungsfähigkeit (1) Ehrgeiz (13) Kontroverse (10) Loyalität (8) Druck (6) Professionalität (10) Fairness (8) Temperament (2)

Profil

Trainerstil Demokratisch
Lizenz Kontinentale C
Entschlossenheit 12
Menschenführung 14
Motivation 12
Disziplin 9
Arbeitszufriedenheit
77%
Ermüdung
0%
Rolle Chefscout
Gehalt 90.4K p/W
Vertrag 14.03.2028

Leistung

Verhalten Gut
Trainingseffektivität
45%
Spielerentwicklung
75%
Verletzungsprävention
40%
Taktische Umsetzung
55%

Letzte Ereignisse

Nahm an einer Scouting-Besprechung teil jetzt
Empfahl ein Transferziel jetzt
Empfahl ein Transferziel jetzt
Empfahl ein Transferziel jetzt
Empfahl ein Transferziel jetzt
Spieler begutachtet jetzt
Spieler begutachtet jetzt
Spieler begutachtet jetzt

Aktuell beobachtet

218
Spieler Verein Status Fähigkeit Vertrauen Beobachtet Zuletzt beobachtet Letzte Stimme
Víctor Gómez Braga Aktiv 136 / 136 40% 8 01.04.2027 -
Gustavo Silva Vitoria Guimaraes Aktiv 128 / 121 40% 9 01.04.2027 -
Florián Monzón Atlas Aktiv 127 / 125 40% 5 01.04.2027 -
Santiago Castro AS Roma Aktiv 145 / 151 40% 7 01.04.2027 -
Matthew Targett Hull City Aktiv 127 / 133 40% 1 01.04.2027 -
Alfie Doughty Millwall Aktiv 133 / 128 40% 1 01.04.2027 -
Leonardo Lelo Braga Aktiv 143 / 134 40% 4 31.03.2027 -
Maximiliano Araújo Sporting CP Aktiv 148 / 149 40% 8 31.03.2027 -
Enzo Barrenechea Benfica Aktiv 152 / 146 40% 4 31.03.2027 -
Vinícius Lopes Santa Clara Aktiv 124 / 119 40% 12 30.03.2027 -
Mohamed-Ali Cho Hull City Aktiv 141 / 138 40% 5 30.03.2027 -
Charles De Ketelaere Atalanta Aktiv 158 / 154 40% 3 30.03.2027 -
Jakub Kiwior Porto Aktiv 154 / 157 40% 3 30.03.2027 -
Jake O'Brien Everton Aktiv 142 / 148 40% 1 30.03.2027 -
Rico Lewis Manchester City Aktiv 156 / 152 40% 1 30.03.2027 -
Ousmane Diomande Nottingham Forest Aktiv 155 / 153 40% 2 29.03.2027 -
Efraín Álvarez Guadalajara Aktiv 133 / 129 40% 7 26.03.2027 -
Camilo Durán Bloemfontein Celtic Aktiv 117 / 117 40% 5 26.03.2027 -
Largie Ramazani Leeds United Aktiv 133 / 139 40% 4 25.03.2027 -
Giacomo Raspadori Atalanta Aktiv 154 / 143 40% 6 25.03.2027 -
Mahmoud Al Bloushi Al Shabab Aktiv 154 / 151 40% 3 24.03.2027 -
Evidence Makgopa Orlando Pirates Aktiv 115 / 110 40% 3 24.03.2027 -
Dom Ballard Leyton Orient Aktiv 121 / 123 40% 2 24.03.2027 -
Tamble Monteiro Rio Ave Aktiv 122 / 116 40% 2 23.03.2027 -
Yanis Begraoui Estoril Praia Aktiv 137 / 132 40% 5 23.03.2027 -
James Garner Everton Aktiv 154 / 150 40% 3 23.03.2027 -
Javi Sánchez Arouca Aktiv 126 / 129 40% 2 23.03.2027 -
Alex Scott Bournemouth Aktiv 150 / 151 40% 1 23.03.2027 -
Georginio Rutter Brighton Aktiv 149 / 150 40% 4 22.03.2027 -
Cesar Corona Veracruz Aktiv 139 / 134 40% 14 20.03.2027 -
Sorriso Famalicao Aktiv 131 / 127 40% 10 20.03.2027 -
Martín Tejón Maritimo Aktiv 116 / 124 40% 1 20.03.2027 -
Yuri Alberto Corinthians Aktiv 141 / 143 40% 12 19.03.2027 -
Iván Fresneda Sporting CP Aktiv 136 / 143 40% 8 18.03.2027 -
Yousef Salech Cardiff City Aktiv 125 / 124 40% 8 18.03.2027 -
Percy Erasmus SuperSport United Aktiv 120 / 126 40% 10 18.03.2027 -
Emanuel Emegha Chelsea Aktiv 144 / 143 40% 1 18.03.2027 -
Óscar Mingueza Crystal Palace Aktiv 153 / 147 40% 1 18.03.2027 -
Xeka Estoril Praia Aktiv 127 / 126 40% 3 17.03.2027 -
Wesley Fofana Chelsea Aktiv 168 / 159 40% 1 17.03.2027 -
Erik Lira Cruz Azul Aktiv 132 / 138 40% 1 17.03.2027 -
Sikou Niakaté Braga Aktiv 142 / 138 40% 1 16.03.2027 -
Loïs Openda Juventus Aktiv 146 / 148 40% 1 14.03.2027 -
Jalen Blesa Rio Ave Aktiv 118 / 119 40% 9 13.03.2027 -
Adnan Courtois KV Oostende Aktiv 128 / 130 40% 2 11.03.2027 -
Jan Bednarek Porto Aktiv 143 / 146 40% 3 10.03.2027 -
Jordan Holsgrove Estoril Praia Aktiv 136 / 127 40% 3 10.03.2027 -
Harry Clarke Preston Aktiv 130 / 129 40% 1 10.03.2027 -
Mateo Kovačić Manchester City Aktiv 151 / 151 40% 2 09.03.2027 -
Yehor Yarmoliuk Brentford Aktiv 142 / 152 40% 1 09.03.2027 -
Korede Osundina Casa Pia Aktiv 118 / 116 40% 5 07.03.2027 -
Tom Cannon Sheffield United Aktiv 130 / 127 40% 8 07.03.2027 -
Afimico Pululu Al-Hazem Aktiv 143 / 131 40% 4 04.03.2027 -
Michy Fellaini KV Oostende Aktiv 140 / 138 40% 4 27.02.2027 -
Nico Paz Como Aktiv 152 / 160 40% 4 26.02.2027 -
Alberto Costa Porto Aktiv 141 / 147 40% 3 25.02.2027 -
Leon Goretzka Aston Villa Aktiv 160 / 155 40% 4 25.02.2027 -
Ondrej Duda Zamalek Aktiv 125 / 133 40% 1 24.02.2027 -
Bright Arrey-Mbi Braga Aktiv 130 / 134 40% 2 23.02.2027 -
Adrien Truffert Bournemouth Aktiv 156 / 147 40% 5 23.02.2027 -
Richard Ríos Benfica Aktiv 141 / 144 40% 1 22.02.2027 -
Gustaf Lagerbielke Braga Aktiv 142 / 139 40% 1 22.02.2027 -
Shea Charles Southampton Aktiv 140 / 138 40% 2 21.02.2027 -
Curtis Jones Inter Aktiv 156 / 156 40% 1 21.02.2027 -
Nicolò Tresoldi Club Brugge Aktiv 135 / 133 40% 2 19.02.2027 -
Gonzalo Fulham Aktiv 145 / 145 40% 1 17.02.2027 -
Amadou Onana Aston Villa Aktiv 161 / 157 40% 2 15.02.2027 -
Kevin Schade Brentford Aktiv 143 / 146 40% 2 15.02.2027 -
Fidel Ambríz Monterrey Aktiv 130 / 129 40% 1 15.02.2027 -
Figueiredo Alverca Aktiv 128 / 128 40% 8 14.02.2027 -
Rumarn Burrell Queens Park Rangers Aktiv 133 / 125 40% 1 13.02.2027 -
Luciano Gondou CSKA Moscow Aktiv 134 / 123 40% 2 11.02.2027 -
Cristian Montero Veracruz Aktiv 132 / 127 40% 1 11.02.2027 -
Morgan Whittaker Middlesbrough Aktiv 136 / 131 40% 3 10.02.2027 -
Igor Jesus Nottingham Forest Aktiv 138 / 140 40% 1 06.02.2027 -
Tyler Adams Bournemouth Aktiv 156 / 152 40% 1 06.02.2027 -
Jean-Luc Morin Tours Aktiv 141 / 141 40% 6 04.02.2027 -
Pablo Rosario Porto Aktiv 145 / 140 40% 7 01.02.2027 -
Francisco Moura Porto Aktiv 137 / 137 40% 2 31.01.2027 -
Richard Ledezma Guadalajara Aktiv 136 / 137 40% 1 31.01.2027 -
Lucas Piton Vasco da Gama Aktiv 124 / 133 40% 2 28.01.2027 -
Brennan Johnson Everton Aktiv 140 / 142 40% 4 28.01.2027 -
Renan Lodi Atlético Mineiro Aktiv 145 / 136 40% 2 28.01.2027 -
Quilindschy Hartman Burnley Aktiv 145 / 144 40% 1 28.01.2027 -
Rubén Duarte Pumas UNAM Aktiv 129 / 129 40% 2 26.01.2027 -
Rodrigo Pinheiro Famalicao Aktiv 133 / 129 40% 2 25.01.2027 -
Noah Sadiki Sunderland Aktiv 148 / 147 40% 1 25.01.2027 -
Kenny Tete Fulham Aktiv 147 / 143 40% 1 25.01.2027 -
Luís Esteves Atlas Aktiv 129 / 130 40% 2 23.01.2027 -
Maxence Lacroix Chelsea Aktiv 146 / 151 40% 1 23.01.2027 -
José Manuel López Palmeiras Aktiv 132 / 131 40% 5 18.01.2027 -
Nathan Fogaça Fortaleza Aktiv 133 / 127 40% 2 15.01.2027 -
Paulinho Palmeiras Aktiv 149 / 143 40% 7 14.01.2027 -
Lucas Veríssimo Santos Aktiv 128 / 134 40% 2 13.01.2027 -
Itumeleng Tau Ajax Cape Town Aktiv 105 / 113 40% 3 12.01.2027 -
Anton Stach Leeds United Aktiv 146 / 149 40% 1 11.01.2027 -
George Hirst Stoke City Aktiv 135 / 134 40% 3 08.01.2027 -
Sidney Lima Santa Clara Aktiv 128 / 127 40% 1 06.01.2027 -
Josh Coburn Millwall Aktiv 117 / 117 40% 1 06.01.2027 -
Samu Aghehowa Arsenal Aktiv 144 / 151 40% 2 01.01.2027 -
Brayan León Mamelodi Sundowns Aktiv 123 / 114 40% 2 30.12.2026 -
Marcos Paulo Juventude Abgelehnt 127 / 121 40% 2 27.12.2026 Mehr Infos nötig
Gonzalo Plata Dinamo Moscow Aktiv 128 / 131 40% 1 27.12.2026 -
Liam Delap Nottingham Forest Aktiv 141 / 144 40% 1 25.12.2026 -
Jonathan Calleri Sport Recife Aktiv 141 / 133 65% 1 21.12.2026 Befürworten
Adriano Bertaccini Anderlecht Aktiv 133 / 122 40% 2 19.12.2026 -
Brenner Vasco da Gama Aktiv 119 / 129 40% 3 18.12.2026 -
Vitor Roque Palmeiras Aktiv 150 / 146 40% 7 17.12.2026 -
Stav Toriel Hapoel Tel Aviv Aktiv 136 / 131 40% 1 17.12.2026 -
Heorhii Sudakov Benfica Aktiv 143 / 144 40% 3 13.12.2026 -
Alan KAA Gent Aktiv 126 / 131 40% 1 13.12.2026 -
Fotis Ioannidis Sporting CP Aktiv 133 / 133 40% 2 02.12.2026 -
Martinelli Fluminense Aktiv 138 / 140 66% 1 01.12.2026 Befürworten
Marcos Antonio Sport Recife Verloren 138 / 138 68% 1 01.12.2026 -
Iván Martín Racing Club Aktiv 143 / 143 66% 1 01.12.2026 Befürworten
Marvin Keller Young Boys Bericht bereit 136 / 137 67% 1 01.12.2026 Befürworten
Javi Ontiveros Cádiz Aktiv 134 / 125 40% 2 30.11.2026 -
Loum Tchaouna Coventry City Aktiv 143 / 137 40% 4 30.11.2026 -
Alexis Vega Toluca Verloren 140 / 145 40% 10 28.11.2026 -
João Palhinha Benfica Verloren 149 / 150 40% 9 27.11.2026 Beobachten
Matheus Pereira Cruzeiro Aktiv 136 / 142 40% 4 27.11.2026 -
Gabri Veiga Porto Aktiv 145 / 150 40% 2 27.11.2026 Mehr Infos nötig
Pau Víctor Braga Aktiv 141 / 140 40% 6 26.11.2026 -
Pepê Porto Aktiv 154 / 145 40% 5 26.11.2026 -
Gianluca Prestianni Benfica Aktiv 135 / 140 40% 13 25.11.2026 -
Mateo Retegui Al-Qadisiyah Aktiv 162 / 155 40% 2 25.11.2026 -
Yeremay Deportivo La Coruña Aktiv 143 / 145 40% 2 25.11.2026 -
Germán Valera Elche Aktiv 144 / 137 40% 1 25.11.2026 -
Roberto Fernández Braga Aktiv 147 / 139 40% 3 24.11.2026 -
Marcos Paulo Juventude Verloren 123 / 123 40% 2 24.11.2026 Mehr Infos nötig
Lukáš Provod Slavia Prague Verloren 156 / 140 40% 1 22.11.2026 -
Marcel Ruiz Toluca Aktiv 136 / 138 40% 3 21.11.2026 -
Borja Sainz Porto Aktiv 145 / 145 40% 4 20.11.2026 -
Daniel Bragança Sporting CP Aktiv 132 / 133 40% 8 19.11.2026 -
Alejandro Grimaldo Atlético Madrid Aktiv 168 / 159 40% 1 19.11.2026 -
Mario Dorgeles Braga Aktiv 135 / 137 40% 4 18.11.2026 -
Haissem Hassan Bloemfontein Celtic Aktiv 141 / 129 40% 2 18.11.2026 -
Roger Brugué Levante Aktiv 133 / 128 40% 1 16.11.2026 -
Agustín Palavecino Cruz Azul Aktiv 133 / 134 40% 2 15.11.2026 -
Thiago Almada River Plate Verloren 144 / 148 40% 3 14.11.2026 -
Luiz Henrique Zenit Aktiv 151 / 146 40% 2 14.11.2026 -
Geny Sporting CP Aktiv 137 / 140 40% 4 12.11.2026 -
Pablo Solari Spartak Moscow Aktiv 118 / 129 40% 2 11.11.2026 -
Jefferson Savarino Fluminense Aktiv 138 / 132 40% 3 10.11.2026 -
Leandro Barreiro Benfica Aktiv 146 / 139 40% 4 10.11.2026 -
Lucas Paquetá Flamengo Aktiv 141 / 139 40% 3 10.11.2026 -
Alan Varela Porto Aktiv 139 / 144 40% 3 09.11.2026 -
Omar El Hilali Espanyol Aktiv 140 / 145 40% 1 09.11.2026 -
Marcos Llorente Atlético Madrid Aktiv 150 / 156 40% 1 09.11.2026 -
Rodrigo Zalazar Sporting CP Aktiv 148 / 146 40% 2 06.11.2026 -
Fredrik Aursnes Benfica Aktiv 144 / 147 40% 5 05.11.2026 -
Hwang In-Beom Porto Aktiv 146 / 142 40% 4 04.11.2026 -
Mauro Arambarri River Plate Aktiv 159 / 156 40% 6 04.11.2026 -
Reiss Nelson AC Milan Aktiv 136 / 144 40% 1 02.11.2026 -
Brais Méndez Columbus Crew Aktiv 143 / 150 40% 2 30.10.2026 -
Alejandro Piedrahita Deportivo Pereira Aktiv 133 / 121 40% 3 27.10.2026 -
Jonas Wind Braga Aktiv 137 / 136 40% 6 25.10.2026 -
Urko Izeta Cádiz Aktiv 131 / 128 40% 1 25.10.2026 -
João Carvalho Estoril Praia Aktiv 125 / 134 40% 4 21.10.2026 -
José Paradela Cruz Azul Aktiv 137 / 139 40% 5 16.10.2026 -
Jonathan Dubasin Osasuna Aktiv 143 / 138 40% 1 15.10.2026 -
Dodi Lukébakio Benfica Aktiv 135 / 145 40% 1 14.10.2026 -
Santi García Gil Vicente Aktiv 140 / 130 40% 2 13.10.2026 -
Cheikh Sabaly Vancouver Whitecaps Aktiv 120 / 124 40% 1 09.10.2026 -
William Gomes Porto Aktiv 133 / 143 40% 5 06.10.2026 -
Ollie Watkins Aston Villa Aktiv 144 / 151 40% 1 06.10.2026 -
Alejandro Zendejas Club America Aktiv 138 / 139 40% 2 05.10.2026 -
Rafael Navarro Colorado Rapids Aktiv 126 / 127 40% 1 05.10.2026 -
Nehuén Pérez Porto Aktiv 134 / 136 40% 1 05.10.2026 -
Samuel Lino Flamengo Aktiv 144 / 140 40% 4 01.10.2026 -
Ryan Gauld Vancouver Whitecaps Aktiv 140 / 132 40% 2 30.09.2026 -
Jesús Ricardo Angulo Toluca Aktiv 139 / 132 40% 1 29.09.2026 -
Riqui Puig LA Galaxy Aktiv 127 / 132 40% 1 24.09.2026 -
Enzo Díaz Sport Recife Aktiv 138 / 134 40% 2 23.09.2026 -
Ritsu Doan Gamba Osaka Aktiv 161 / 144 40% 1 23.09.2026 -
Isidro Pitta Bragantino Aktiv 120 / 126 40% 1 23.09.2026 -
Tadeo Allende Inter Miami CF Aktiv 126 / 120 40% 1 22.09.2026 -
Alexander Díaz Deportivo Riestra Aktiv 119 / 115 40% 1 22.09.2026 -
Sergio Reguilón Inter Miami CF Aktiv 135 / 133 40% 1 20.09.2026 -
Sebastián Córdova Pumas UNAM Aktiv 135 / 132 40% 1 20.09.2026 -
Axel Openda KV Oostende Aktiv 126 / 132 40% 1 19.09.2026 -
Bénie Traoré New York City Aktiv 120 / 124 40% 1 14.09.2026 -
Justo Giani Universidad Catolica Aktiv 125 / 118 40% 1 14.09.2026 -
Saúl Flamengo Aktiv 127 / 137 40% 1 13.09.2026 -
Oumar Camara Vitoria Guimaraes Aktiv 125 / 127 40% 1 10.09.2026 -
Luca Orellano Monterrey Aktiv 128 / 132 40% 1 10.09.2026 -
Denis Bouanga Los Angeles Football Club Aktiv 137 / 136 40% 1 10.09.2026 -
Ismaël Bennacer Palmeiras Aktiv 152 / 142 40% 2 05.09.2026 -
Ricardo Horta Braga Aktiv 156 / 150 40% 4 05.09.2026 -
Nicolás de la Cruz Flamengo Aktiv 135 / 135 40% 1 04.09.2026 -
Nuno Santos Sporting CP Aktiv 142 / 138 40% 3 02.09.2026 -
Agustín Canobbio Fluminense Aktiv 141 / 128 40% 1 02.09.2026 -
Allan Saint-Maximin Charlotte Football Club Aktiv 146 / 143 40% 3 31.08.2026 -
Pavel Bucha FC Cincinnati Aktiv 138 / 133 40% 1 31.08.2026 -
Gérson Cruzeiro Aktiv 141 / 143 40% 1 30.08.2026 -
Kévin Denkey FC Cincinnati Aktiv 124 / 130 40% 2 27.08.2026 -
Andreas Pereira Palmeiras Aktiv 131 / 137 40% 1 27.08.2026 -
Alan Velasco Boca Juniors Aktiv 134 / 130 40% 1 27.08.2026 -
Vitinho Botafogo Aktiv 126 / 131 40% 1 25.08.2026 -
Jhon Arias Palmeiras Aktiv 140 / 139 40% 1 22.08.2026 -
Luis Romo Guadalajara Aktiv 140 / 141 40% 1 21.08.2026 -
Léo Ortiz Flamengo Aktiv 131 / 144 40% 1 18.08.2026 -
Adrian Leon Barišić Braga Aktiv 121 / 131 40% 1 18.08.2026 -
Tomás Chancalay Minnesota United FC Aktiv 121 / 125 40% 1 18.08.2026 -
Gabriel Silva Braga Aktiv 122 / 130 40% 1 16.08.2026 -
Roberto Alvarado Guadalajara Aktiv 136 / 135 40% 2 13.08.2026 -
Bruno Barticciotto Talleres Aktiv 116 / 126 40% 1 12.08.2026 -
Martim Fernandes Porto Aktiv 127 / 141 40% 2 11.08.2026 -
Andrés Gómez Vasco da Gama Aktiv 127 / 130 40% 1 11.08.2026 -
Alexander Bah Benfica Aktiv 135 / 134 40% 1 11.08.2026 -
Rodrigo Garro Corinthians Aktiv 127 / 135 40% 2 08.08.2026 -
Alexis Cuello San Lorenzo Aktiv 123 / 120 40% 1 08.08.2026 -
Deniz Gül Porto Aktiv 133 / 133 40% 1 08.08.2026 -
William Cruzeiro Aktiv 126 / 137 40% 1 08.08.2026 -
Sergi Altimira Sporting CP Aktiv 136 / 138 40% 1 08.08.2026 -
Augusto Batalla Rayo Vallecano Aktiv 136 / 137 40% 2 03.08.2026 -
Ignacio de Arruabarrena Arouca Aktiv 133 / 128 40% 1 02.08.2026 -
Hugo Souza Corinthians Aktiv 131 / 128 40% 1 02.08.2026 -